Time;durP1;ratioP1;P1;durP2;ratioP2;P2;SDS_P1;SDS_P2;PMS_P1;PMS_P2;Temp;Humidity;BMP_temperature;BMP_pressure;BME280_temperature;BME280_humidity;BME280_pressure;Samples;Min_cycle;Max_cycle;Signal;HPM_P1;HPM_P2
2021/12/02 00:00:53;;;;;;;6.20;2.67;;;;;;;4.10;63.59;98476.84;5041794;28;20170;-72
2021/12/02 00:03:18;;;;;;;6.20;2.70;;;;;;;4.10;63.63;98492.31;5041347;28;20605;-72
2021/12/02 00:05:44;;;;;;;8.07;3.20;;;;;;;4.54;62.80;98488.81;5041442;28;20201;-72
2021/12/02 00:08:09;;;;;;;3.60;2.20;;;;;;;4.36;63.24;98490.56;5041201;28;20174;-72
2021/12/02 00:10:35;;;;;;;3.40;2.87;;;;;;;4.28;63.54;98492.31;5041180;28;20178;-72
2021/12/02 00:13:01;;;;;;;7.27;2.90;;;;;;;4.22;64.14;98507.78;5041697;28;20209;-72
2021/12/02 00:15:56;;;;;;;5.50;2.50;;;;;;;4.15;64.00;98501.78;5041132;28;20520;-75
2021/12/02 00:21:05;;;;;;;12.70;3.30;;;;;;;4.32;63.45;98519.81;5041279;28;20425;-75
2021/12/02 00:23:35;;;;;;;7.27;5.20;;;;;;;4.31;63.31;98531.00;5041083;28;20184;-74
2021/12/02 00:26:05;;;;;;;3.53;3.23;;;;;;;4.80;62.50;98542.09;5042533;28;20427;-74
2021/12/02 00:28:31;;;;;;;5.23;2.70;;;;;;;4.60;62.62;98540.44;5030383;28;20467;-75
2021/12/02 00:30:58;;;;;;;6.57;2.90;;;;;;;4.41;64.70;98542.19;5046650;28;20420;-76
2021/12/02 00:33:28;;;;;;;7.60;3.03;;;;;;;4.74;63.83;98553.31;5010402;28;20478;-76
2021/12/02 00:35:54;;;;;;;10.47;3.00;;;;;;;4.52;64.72;98555.91;5041289;28;20412;-73
2021/12/02 00:38:21;;;;;;;11.20;3.20;;;;;;;4.24;65.21;98561.97;5041337;28;20512;-75
2021/12/02 00:40:47;;;;;;;5.20;2.80;;;;;;;4.48;64.71;98561.06;5040712;28;20602;-76
2021/12/02 00:43:13;;;;;;;8.23;3.60;;;;;;;4.51;64.83;98561.94;5040553;28;20511;-73
2021/12/02 00:45:40;;;;;;;7.77;3.13;;;;;;;4.54;64.22;98566.22;5040977;28;20422;-73
2021/12/02 00:48:07;;;;;;;8.07;3.50;;;;;;;4.51;64.41;98574.00;5040826;28;20417;-74
2021/12/02 00:50:32;;;;;;;5.20;2.93;;;;;;;4.13;65.35;98578.28;5040631;28;20432;-76
2021/12/02 00:52:58;;;;;;;6.00;2.90;;;;;;;4.16;64.68;98585.16;5007192;28;20449;-73
2021/12/02 00:55:26;;;;;;;4.67;2.80;;;;;;;4.14;64.34;98587.75;5023462;28;20543;-74
2021/12/02 00:57:51;;;;;;;7.03;3.07;;;;;;;4.34;65.72;98592.91;5040591;28;20185;-73
2021/12/02 01:00:16;;;;;;;4.13;2.77;;;;;;;4.40;63.76;98594.63;5023423;28;20413;-76
2021/12/02 01:02:42;;;;;;;6.10;2.70;;;;;;;4.43;63.39;98604.09;5039794;28;20219;-72
2021/12/02 01:05:08;;;;;;;3.57;2.93;;;;;;;4.04;64.11;98604.06;5023590;28;20461;-72
2021/12/02 01:07:33;;;;;;;5.40;2.67;;;;;;;4.27;62.92;98605.81;5040238;28;20425;-74
2021/12/02 01:09:59;;;;;;;5.47;2.77;;;;;;;4.62;62.48;98625.59;5040224;28;20189;-74
2021/12/02 01:12:25;;;;;;;6.40;2.83;;;;;;;4.50;63.21;98627.28;5040514;28;20205;-72
2021/12/02 01:14:50;;;;;;;5.77;2.90;;;;;;;4.00;63.40;98639.28;5040119;28;20424;-75
2021/12/02 01:17:15;;;;;;;5.10;3.17;;;;;;;4.27;62.83;98637.59;5040153;28;20586;-76
2021/12/02 01:19:41;;;;;;;5.87;2.97;;;;;;;4.28;63.06;98653.97;5040398;28;20176;-73
2021/12/02 01:22:07;;;;;;;6.43;3.07;;;;;;;4.03;63.96;98657.34;5039836;28;20228;-75
2021/12/02 01:24:33;;;;;;;5.10;2.77;;;;;;;4.61;62.95;98655.69;5022634;28;20438;-77
2021/12/02 01:27:01;;;;;;;26.97;3.40;;;;;;;4.74;62.48;98660.88;5023139;28;20401;-74
2021/12/02 01:29:26;;;;;;;5.50;2.80;;;;;;;4.29;63.56;98669.44;5022717;28;20507;-74
2021/12/02 01:31:54;;;;;;;8.87;2.80;;;;;;;4.29;62.51;98676.28;5039856;28;20417;-75
2021/12/02 01:34:25;;;;;;;4.40;2.80;;;;;;;3.95;63.97;98677.09;5050391;28;20234;-75
2021/12/02 01:36:52;;;;;;;10.23;3.03;;;;;;;4.24;63.85;98686.63;5047115;28;20689;-75
2021/12/02 01:39:17;;;;;;;4.07;2.60;;;;;;;4.21;63.53;98684.88;5041823;28;20814;-75
2021/12/02 01:41:44;;;;;;;5.43;2.73;;;;;;;4.09;64.14;98689.16;5040412;28;20425;-71
2021/12/02 01:44:13;;;;;;;5.60;2.77;;;;;;;4.29;64.04;98687.50;5039912;28;20167;-73
2021/12/02 01:46:39;;;;;;;8.07;3.30;;;;;;;4.18;63.64;98696.91;5022880;28;20425;-72
2021/12/02 01:49:05;;;;;;;6.07;2.80;;;;;;;3.98;65.30;98692.56;5040180;28;20715;-72
2021/12/02 01:51:31;;;;;;;7.53;3.17;;;;;;;3.71;65.40;98714.78;5039536;28;20425;-76
2021/12/02 01:54:04;;;;;;;6.30;2.77;;;;;;;4.01;64.66;98710.63;5036785;28;20232;-74
2021/12/02 01:56:31;;;;;;;4.70;2.70;;;;;;;4.33;63.71;98724.44;5059027;28;20458;-75
2021/12/02 01:59:07;;;;;;;3.80;2.10;;;;;;;3.94;65.24;98728.63;5059489;28;20416;-74
2021/12/02 02:01:34;;;;;;;3.60;2.20;;;;;;;4.04;64.28;98733.81;5059372;28;20418;-73
2021/12/02 02:04:00;;;;;;;5.10;2.40;;;;;;;4.37;63.39;98732.22;5058771;28;20415;-74
2021/12/02 02:06:37;;;;;;;5.50;2.50;;;;;;;4.18;64.48;98733.88;5058558;28;20432;-73
2021/12/02 02:09:04;;;;;;;4.17;2.47;;;;;;;4.24;63.16;98732.19;5058691;28;20169;-73
2021/12/02 02:11:30;;;;;;;7.97;2.50;;;;;;;4.52;62.75;98741.72;5059156;28;20514;-73
2021/12/02 02:13:56;;;;;;;3.50;2.20;;;;;;;4.35;63.85;98751.13;5059382;28;20488;-73
2021/12/02 02:16:22;;;;;;;2.83;2.20;;;;;;;4.28;63.80;98751.97;5059138;28;20440;-76
2021/12/02 02:18:48;;;;;;;2.43;2.23;;;;;;;4.29;65.88;98767.44;5058721;28;20447;-72
2021/12/02 02:21:16;;;;;;;3.73;2.60;;;;;;;4.22;63.70;98764.00;5059409;28;20162;-74
2021/12/02 02:23:47;;;;;;;6.03;2.80;;;;;;;3.68;65.24;98768.91;5058214;28;20176;-73
2021/12/02 02:26:14;;;;;;;5.17;2.43;;;;;;;4.44;62.85;98771.78;5058908;28;20398;-72
2021/12/02 02:28:39;;;;;;;3.90;2.57;;;;;;;4.12;63.38;98789.75;5058853;28;20440;-77
2021/12/02 02:31:05;;;;;;;2.37;2.03;;;;;;;4.03;64.09;98794.00;5058719;28;20439;-70
2021/12/02 02:33:36;;;;;;;5.00;2.37;;;;;;;4.22;62.93;98791.47;5058593;28;20602;-70
2021/12/02 02:36:03;;;;;;;2.83;2.30;;;;;;;3.86;63.18;98791.34;5058700;28;20176;-70
2021/12/02 02:38:29;;;;;;;3.53;2.07;;;;;;;4.33;63.22;98792.41;5058577;28;20824;-71
2021/12/02 02:40:56;;;;;;;4.50;2.40;;;;;;;3.86;62.36;98811.09;5058931;28;20411;-70
2021/12/02 02:43:23;;;;;;;3.50;2.10;;;;;;;3.96;62.08;98807.69;5058335;28;20172;-71
2021/12/02 02:45:49;;;;;;;4.70;2.50;;;;;;;3.66;63.31;98810.97;5058284;28;20470;-71
2021/12/02 02:48:14;;;;;;;4.20;2.27;;;;;;;3.54;62.15;98827.22;5058903;28;20440;-69
2021/12/02 02:50:40;;;;;;;3.57;2.03;;;;;;;3.87;62.17;98821.41;5058596;28;20165;-71
2021/12/02 02:53:16;;;;;;;3.10;2.07;;;;;;;4.05;61.16;98828.38;5058410;28;20209;-71
2021/12/02 02:55:47;;;;;;;3.03;2.03;;;;;;;4.05;61.85;98812.91;5039122;28;20817;-74
2021/12/02 03:01:02;;;;;;;4.20;2.17;;;;;;;4.00;63.70;98812.00;5038332;28;20435;-71
2021/12/02 03:03:45;;;;;;;4.23;2.50;;;;;;;4.05;63.32;98820.63;5006257;28;20416;-71
2021/12/02 03:09:02;;;;;;;5.73;2.13;;;;;;;3.68;63.60;98835.03;5023721;28;20817;-72
2021/12/02 03:11:38;;;;;;;4.27;2.37;;;;;;;3.82;64.00;98842.88;5022218;28;20392;-72
2021/12/02 03:14:10;;;;;;;3.10;1.90;;;;;;;4.04;63.26;98852.44;5020859;28;20499;-73
2021/12/02 03:16:45;;;;;;;2.80;2.03;;;;;;;3.54;64.92;98850.41;5021985;28;20810;-71
2021/12/02 03:19:14;;;;;;;3.40;2.83;;;;;;;3.12;66.87;98864.66;5038311;28;20391;-72
2021/12/02 03:21:39;;;;;;;7.70;3.00;;;;;;;3.50;66.71;98867.53;5038000;28;20432;-72
2021/12/02 03:24:05;;;;;;;4.70;2.37;;;;;;;3.54;67.56;98864.16;5038222;28;20413;-71
2021/12/02 03:26:32;;;;;;;4.63;2.30;;;;;;;3.64;67.73;98869.34;5041786;28;20223;-70
2021/12/02 03:28:58;;;;;;;5.10;2.60;;;;;;;3.50;68.17;98870.13;5042314;28;20412;-73
2021/12/02 03:31:24;;;;;;;3.83;2.40;;;;;;;3.59;68.23;98866.75;5042332;28;20416;-71
2021/12/02 03:33:50;;;;;;;5.40;2.87;;;;;;;3.45;69.09;98873.50;5042485;28;20452;-72
2021/12/02 03:36:17;;;;;;;4.07;2.07;;;;;;;3.63;69.55;98873.66;5042016;28;20182;-76
2021/12/02 03:38:43;;;;;;;5.47;2.33;;;;;;;3.64;69.81;98885.69;5042546;28;20417;-76
2021/12/02 03:41:08;;;;;;;3.70;1.97;;;;;;;3.51;70.12;98886.44;5025188;28;20479;-72
2021/12/02 03:43:41;;;;;;;3.00;2.13;;;;;;;3.52;71.00;98889.03;5024859;28;20470;-75
2021/12/02 03:46:08;;;;;;;4.37;3.00;;;;;;;3.35;71.31;98885.44;5041965;28;20455;-75
2021/12/02 03:48:35;;;;;;;3.20;2.73;;;;;;;3.46;71.20;98890.69;5042339;28;20762;-73
2021/12/02 03:51:01;;;;;;;3.20;2.90;;;;;;;3.19;72.46;98887.03;5042041;28;20743;-74
2021/12/02 03:53:26;;;;;;;6.13;2.77;;;;;;;3.34;72.02;98881.16;5041526;28;20505;-72
2021/12/02 03:55:52;;;;;;;5.10;2.73;;;;;;;3.26;72.49;98888.81;5042197;28;20202;-73
2021/12/02 03:58:17;;;;;;;5.10;3.30;;;;;;;3.35;72.26;98883.72;5041831;28;20178;-75
2021/12/02 04:00:42;;;;;;;4.77;3.00;;;;;;;3.05;74.26;98893.78;5041722;28;20300;-74
2021/12/02 04:03:08;;;;;;;4.33;2.67;;;;;;;3.05;73.22;98896.34;5041745;28;20547;-72
2021/12/02 04:05:33;;;;;;;2.70;2.30;;;;;;;3.01;73.85;98906.59;5041612;28;20209;-73
2021/12/02 04:07:58;;;;;;;6.20;4.57;;;;;;;8.95;92.69;98892.00;5024095;28;20471;-54
2021/12/02 04:10:25;;;;;;;7.83;4.47;;;;;;;10.24;74.54;98889.91;5041946;28;20459;-55
2021/12/02 04:13:01;;;;;;;8.03;3.63;;;;;;;11.20;72.73;98892.31;5043412;28;20209;-62
2021/12/02 04:15:32;;;;;;;4.33;2.60;;;;;;;5.51;64.13;98917.44;5052178;28;20447;-74
2021/12/02 04:17:58;;;;;;;2.50;2.30;;;;;;;4.58;67.72;98915.47;5050982;28;20416;-72
2021/12/02 04:20:24;;;;;;;3.33;2.33;;;;;;;3.81;70.74;98928.78;5045670;28;20413;-72
2021/12/02 04:22:52;;;;;;;4.37;2.50;;;;;;;4.21;69.00;98936.78;5043428;28;20185;-71
2021/12/02 04:25:17;;;;;;;6.83;2.87;;;;;;;3.15;72.09;98954.78;5041537;28;20391;-70
2021/12/02 04:27:43;;;;;;;4.00;2.73;;;;;;;3.03;72.74;98953.81;5041452;28;20716;-71
2021/12/02 04:30:12;;;;;;;3.10;2.30;;;;;;;3.31;71.71;98953.25;5041770;28;20162;-71
2021/12/02 04:32:38;;;;;;;5.00;2.90;;;;;;;3.18;71.76;98952.22;5023663;28;20476;-71
2021/12/02 04:35:03;;;;;;;7.87;2.67;;;;;;;3.27;69.54;98972.94;5040966;28;20753;-71
2021/12/02 04:37:29;;;;;;;5.03;2.37;;;;;;;3.27;69.48;98972.09;5040182;28;20173;-70
2021/12/02 04:39:55;;;;;;;8.77;5.77;;;;;;;3.13;69.41;98970.22;5040986;28;20428;-71
2021/12/02 04:42:20;;;;;;;9.83;5.77;;;;;;;3.10;68.51;98977.91;5040849;28;20166;-70
2021/12/02 04:44:46;;;;;;;4.67;2.67;;;;;;;3.11;68.48;98974.50;5041405;28;20185;-70
2021/12/02 04:47:11;;;;;;;4.07;3.13;;;;;;;3.14;66.25;98982.25;5040701;28;20428;-71
2021/12/02 04:49:37;;;;;;;4.70;2.50;;;;;;;3.58;65.29;98983.56;5040592;28;20180;-70
2021/12/02 04:52:02;;;;;;;5.60;3.13;;;;;;;3.09;64.28;98995.94;5040788;28;20166;-70
2021/12/02 04:54:28;;;;;;;6.43;2.77;;;;;;;3.50;63.65;98998.06;5046778;28;20248;-70
2021/12/02 04:56:53;;;;;;;7.13;3.43;;;;;;;3.15;62.54;99008.84;5059839;28;20765;-70
2021/12/02 04:59:18;;;;;;;3.80;2.30;;;;;;;3.25;63.25;99008.13;5060873;28;20165;-72
2021/12/02 05:01:44;;;;;;;3.13;2.20;;;;;;;3.53;65.20;99005.81;5060296;28;20548;-70
2021/12/02 05:04:09;;;;;;;4.57;2.60;;;;;;;3.31;62.47;99008.19;5060502;28;20177;-71
2021/12/02 05:06:35;;;;;;;4.80;2.87;;;;;;;3.08;62.66;98999.34;5060803;28;20667;-72
2021/12/02 05:09:00;;;;;;;5.33;2.87;;;;;;;3.26;65.91;98996.09;5060203;28;20177;-71
2021/12/02 05:11:25;;;;;;;3.90;2.80;;;;;;;3.44;61.66;98995.44;5061569;28;20185;-70
2021/12/02 05:13:51;;;;;;;7.40;2.60;;;;;;;3.13;62.69;99002.84;5060590;28;20539;-71
2021/12/02 05:16:16;;;;;;;10.97;6.70;;;;;;;3.29;62.29;99009.88;5060107;28;20429;-70
2021/12/02 05:18:41;;;;;;;9.23;2.63;;;;;;;3.47;62.50;99016.09;5060186;28;20188;-71
2021/12/02 05:21:07;;;;;;;4.20;3.40;;;;;;;3.22;64.02;99020.97;5060524;28;20178;-71
2021/12/02 05:23:33;;;;;;;5.03;2.97;;;;;;;2.86;64.53;99023.09;5059932;28;20177;-71
2021/12/02 05:25:58;;;;;;;4.60;2.67;;;;;;;3.09;63.35;99017.38;5059821;28;20181;-72
2021/12/02 05:28:24;;;;;;;6.10;2.50;;;;;;;3.10;63.43;99025.97;5060658;28;20200;-71
2021/12/02 05:30:49;;;;;;;5.70;3.33;;;;;;;2.98;64.91;99017.25;5059862;28;20546;-71
2021/12/02 05:33:15;;;;;;;4.67;2.87;;;;;;;3.23;64.43;99020.09;5058922;28;20583;-71
2021/12/02 05:35:40;;;;;;;5.77;2.53;;;;;;;3.06;62.97;99026.75;5060230;28;20162;-71
2021/12/02 05:38:06;;;;;;;4.70;2.63;;;;;;;2.98;63.21;99030.13;5059886;28;20458;-71
2021/12/02 05:40:32;;;;;;;5.33;2.80;;;;;;;3.19;63.16;99042.41;5059753;28;20176;-71
2021/12/02 05:42:57;;;;;;;3.97;2.80;;;;;;;3.20;62.97;99043.25;5059184;28;20166;-71
2021/12/02 05:45:23;;;;;;;3.90;2.50;;;;;;;2.90;63.30;99044.59;5059496;28;20243;-73
2021/12/02 05:47:48;;;;;;;3.53;2.80;;;;;;;3.17;62.68;99053.53;5059245;28;20174;-71
2021/12/02 05:50:13;;;;;;;3.30;2.80;;;;;;;2.98;63.93;99058.44;5060042;28;20425;-71
2021/12/02 05:52:39;;;;;;;8.33;3.03;;;;;;;3.26;64.17;99063.94;5059202;28;20190;-72
2021/12/02 05:55:05;;;;;;;6.60;2.90;;;;;;;3.29;63.00;99071.69;5040590;28;20222;-72
2021/12/02 05:57:31;;;;;;;4.77;3.07;;;;;;;3.30;61.98;99069.97;5022696;28;20154;-72
2021/12/02 05:59:57;;;;;;;8.13;3.47;;;;;;;3.24;63.15;99081.06;5022574;28;20409;-72
2021/12/02 06:02:22;;;;;;;5.50;3.20;;;;;;;3.22;64.16;99082.78;5039739;28;20471;-73
2021/12/02 06:04:51;;;;;;;16.33;2.80;;;;;;;3.60;62.63;99090.09;5027305;28;20468;-72
2021/12/02 06:07:17;;;;;;;5.73;3.00;;;;;;;3.41;64.39;99094.16;5030429;28;20225;-71
2021/12/02 06:09:42;;;;;;;4.87;2.80;;;;;;;2.98;64.20;99103.91;5019574;28;20413;-71
2021/12/02 06:12:08;;;;;;;5.50;3.57;;;;;;;3.20;64.63;99107.63;5034395;28;20486;-71
2021/12/02 06:14:33;;;;;;;6.60;3.60;;;;;;;2.91;65.19;99108.13;5038887;28;20166;-71
2021/12/02 06:16:59;;;;;;;5.60;3.57;;;;;;;3.29;64.91;99110.34;5039208;28;20170;-71
2021/12/02 06:19:24;;;;;;;4.93;3.30;;;;;;;3.15;65.80;99112.75;5039393;28;20232;-71
2021/12/02 06:21:51;;;;;;;6.57;3.00;;;;;;;3.25;65.30;99113.72;5033607;28;20182;-71
2021/12/02 06:24:16;;;;;;;5.20;3.60;;;;;;;2.95;67.64;99112.47;5039290;28;20256;-72
2021/12/02 06:26:42;;;;;;;8.00;3.80;;;;;;;3.18;67.56;99130.78;5021886;28;20496;-71
2021/12/02 06:29:07;;;;;;;5.83;3.53;;;;;;;2.90;68.00;99132.13;5021973;28;20182;-73
2021/12/02 06:31:33;;;;;;;4.20;3.33;;;;;;;2.94;67.65;99139.03;5038811;28;20177;-71
2021/12/02 06:33:58;;;;;;;8.20;3.70;;;;;;;2.95;69.59;99140.78;5039404;28;20209;-72
2021/12/02 06:36:24;;;;;;;5.83;3.07;;;;;;;2.97;68.39;99144.22;5039275;28;20295;-71
2021/12/02 06:38:49;;;;;;;5.30;3.23;;;;;;;2.78;69.87;99153.38;5038887;28;20185;-71
2021/12/02 06:41:16;;;;;;;10.77;3.47;;;;;;;2.88;69.17;99159.53;5039229;28;20170;-71
2021/12/02 06:43:41;;;;;;;8.87;3.80;;;;;;;2.90;71.64;99170.72;5038459;28;20177;-71
2021/12/02 06:46:07;;;;;;;4.03;3.63;;;;;;;3.04;72.08;99163.19;5039047;28;20405;-71
2021/12/02 06:48:32;;;;;;;4.70;3.50;;;;;;;3.21;67.75;99168.59;5038997;28;20254;-71
2021/12/02 06:50:58;;;;;;;5.80;3.40;;;;;;;3.17;68.33;99171.97;5040458;28;20266;-71
2021/12/02 06:53:24;;;;;;;11.07;3.40;;;;;;;3.30;67.08;99179.03;5040162;28;20230;-72
2021/12/02 06:55:49;;;;;;;7.33;3.40;;;;;;;3.03;68.53;99171.75;5042061;28;20158;-71
2021/12/02 06:58:15;;;;;;;4.77;3.30;;;;;;;3.13;67.14;99183.06;5040423;28;20174;-71
2021/12/02 07:00:41;;;;;;;7.53;4.10;;;;;;;3.35;67.31;99186.81;5020469;28;20428;-71
2021/12/02 07:03:06;;;;;;;5.20;3.23;;;;;;;2.97;68.17;99180.25;5038343;28;20498;-70
2021/12/02 07:05:33;;;;;;;4.23;3.30;;;;;;;3.06;68.97;99188.97;5038125;28;20433;-70
2021/12/02 07:08:00;;;;;;;5.43;3.17;;;;;;;3.18;67.14;99189.13;5038061;28;20205;-71
2021/12/02 07:10:27;;;;;;;6.63;3.90;;;;;;;3.27;66.54;99189.28;5038698;28;20475;-71
2021/12/02 07:12:56;;;;;;;8.77;3.43;;;;;;;3.18;66.92;99192.59;5037755;28;20468;-70
2021/12/02 07:15:31;;;;;;;9.50;3.17;;;;;;;3.19;67.50;99201.19;5021520;28;20413;-71
2021/12/02 07:17:58;;;;;;;4.17;3.13;;;;;;;3.31;66.63;99214.22;5038170;28;20412;-71
2021/12/02 07:20:33;;;;;;;5.23;3.17;;;;;;;3.32;68.78;99218.53;5037917;28;20462;-71
2021/12/02 07:22:59;;;;;;;7.23;3.40;;;;;;;3.25;66.61;99224.47;5019887;28;20417;-71
2021/12/02 07:25:25;;;;;;;5.50;3.37;;;;;;;3.15;67.99;99223.47;5038519;28;20443;-70
2021/12/02 07:27:51;;;;;;;5.53;3.50;;;;;;;3.17;66.22;99231.19;5038469;28;20456;-71
2021/12/02 07:30:17;;;;;;;5.30;3.10;;;;;;;3.05;67.04;99238.75;5038619;28;20428;-72
2021/12/02 07:32:47;;;;;;;5.40;3.00;;;;;;;3.21;67.32;99235.56;5037331;28;20198;-71
2021/12/02 07:35:14;;;;;;;6.10;3.30;;;;;;;3.11;67.57;99243.97;5020865;28;20182;-72
2021/12/02 07:37:42;;;;;;;6.00;3.47;;;;;;;3.18;68.11;99253.50;5026923;28;22027;-72
2021/12/02 07:40:08;;;;;;;5.87;3.27;;;;;;;3.39;66.27;99252.13;5021898;28;20448;-71
2021/12/02 07:42:33;;;;;;;4.40;3.17;;;;;;;3.34;65.34;99257.19;5017673;28;20413;-72
2021/12/02 07:44:59;;;;;;;9.17;3.70;;;;;;;3.16;67.44;99262.94;5017588;28;20414;-72
2021/12/02 07:47:25;;;;;;;3.73;3.20;;;;;;;3.18;66.94;99269.84;5018124;28;20179;-71
2021/12/02 07:49:51;;;;;;;6.30;3.97;;;;;;;3.53;65.09;99268.63;5018417;28;20179;-72
2021/12/02 07:52:19;;;;;;;6.10;3.30;;;;;;;3.73;65.02;99271.50;5000602;28;20434;-73
2021/12/02 07:54:45;;;;;;;6.53;3.50;;;;;;;3.50;65.90;99276.31;5017903;28;20218;-71
2021/12/02 07:57:13;;;;;;;4.70;3.13;;;;;;;3.66;64.33;99275.69;5018673;28;20711;-71
2021/12/02 07:59:40;;;;;;;6.63;3.50;;;;;;;3.51;64.22;99283.22;5018187;28;20468;-72
2021/12/02 08:02:05;;;;;;;9.20;3.57;;;;;;;3.63;64.14;99282.53;5017978;28;20733;-71
2021/12/02 08:04:30;;;;;;;6.20;3.90;;;;;;;3.88;64.39;99282.03;5001393;28;20421;-72
2021/12/02 08:06:56;;;;;;;8.97;3.40;;;;;;;3.77;63.51;99280.13;5017786;28;20221;-71
2021/12/02 08:09:21;;;;;;;6.93;3.53;;;;;;;3.69;63.61;99286.06;5001272;28;20171;-71
2021/12/02 08:11:47;;;;;;;10.77;4.00;;;;;;;3.39;63.37;99295.91;5020004;28;20191;-71
2021/12/02 08:14:15;;;;;;;7.53;3.20;;;;;;;4.29;62.24;99295.38;5021594;28;20210;-71
2021/12/02 08:16:41;;;;;;;6.60;3.33;;;;;;;5.41;57.76;99300.75;5021622;28;20177;-71
2021/12/02 08:19:07;;;;;;;4.37;3.20;;;;;;;7.13;52.62;99294.53;5022189;28;20420;-72
2021/12/02 08:21:32;;;;;;;6.77;3.30;;;;;;;7.84;50.45;99299.63;5004074;28;20414;-71
2021/12/02 08:23:57;;;;;;;5.27;3.23;;;;;;;8.11;49.48;99309.97;5021399;28;20171;-72
2021/12/02 08:26:23;;;;;;;6.20;3.33;;;;;;;8.41;48.56;99317.59;5021920;28;20173;-71
2021/12/02 08:28:48;;;;;;;5.07;3.27;;;;;;;8.09;47.65;99326.41;5021336;28;20174;-71
2021/12/02 08:31:15;;;;;;;5.07;3.43;;;;;;;9.22;46.46;99314.56;5021287;28;20242;-71
2021/12/02 08:33:40;;;;;;;3.30;3.00;;;;;;;7.92;47.64;99328.16;5021494;28;20183;-71
2021/12/02 08:36:05;;;;;;;3.97;3.10;;;;;;;8.96;45.93;99332.94;5020943;28;20432;-71
2021/12/02 08:38:32;;;;;;;3.87;3.50;;;;;;;9.30;44.97;99327.50;5021080;28;20525;-71
2021/12/02 08:40:59;;;;;;;7.73;5.47;;;;;;;15.89;60.47;99319.75;5021306;28;20170;-59
2021/12/02 08:43:25;;;;;;;5.27;4.50;;;;;;;15.77;52.22;99313.94;5020721;28;20598;-59
2021/12/02 08:45:50;;;;;;;6.63;3.70;;;;;;;15.51;46.29;99322.75;5020992;28;20465;-60
2021/12/02 08:48:16;;;;;;;4.30;3.90;;;;;;;15.32;41.98;99318.09;5021363;28;20159;-59
2021/12/02 08:50:41;;;;;;;3.80;3.40;;;;;;;15.66;38.95;99316.09;5020752;28;20186;-59
2021/12/02 08:53:07;;;;;;;4.83;3.70;;;;;;;15.26;45.35;99328.81;5020252;28;20249;-59
2021/12/02 08:55:33;;;;;;;8.53;3.47;;;;;;;15.14;41.40;99337.94;5021372;28;20437;-60
2021/12/02 08:58:00;;;;;;;5.13;3.70;;;;;;;14.72;39.33;99347.97;5020570;28;20460;-59
2021/12/02 09:00:33;;;;;;;5.30;3.43;;;;;;;15.64;38.06;99345.06;5020508;28;20182;-60
2021/12/02 09:02:58;;;;;;;4.70;3.47;;;;;;;14.66;42.61;99356.88;5020582;28;20418;-59
2021/12/02 09:05:24;;;;;;;4.20;3.33;;;;;;;15.18;41.93;99359.69;5020490;28;20729;-60
2021/12/02 09:07:49;;;;;;;6.67;4.10;;;;;;;14.49;43.20;99368.69;5020380;28;20179;-60
2021/12/02 09:10:14;;;;;;;4.70;3.00;;;;;;;16.40;39.37;99354.72;5020599;28;20186;-59
2021/12/02 09:12:42;;;;;;;7.10;3.43;;;;;;;13.84;34.68;99371.34;5003184;28;20198;-60
2021/12/02 09:15:08;;;;;;;5.43;3.57;;;;;;;14.65;39.93;99369.16;5020375;28;20167;-60
2021/12/02 09:17:35;;;;;;;4.50;3.60;;;;;;;16.75;40.09;99366.56;5020656;28;20409;-59
2021/12/02 09:20:00;;;;;;;6.23;3.50;;;;;;;14.78;37.77;99372.25;5020102;28;20429;-57
2021/12/02 09:22:26;;;;;;;4.43;3.40;;;;;;;15.08;40.33;99371.38;5019559;28;20414;-61
2021/12/02 09:24:51;;;;;;;8.67;4.50;;;;;;;12.06;35.84;99388.28;5021486;28;20167;-73
2021/12/02 09:27:16;;;;;;;4.90;3.70;;;;;;;10.34;37.83;99400.28;5020893;28;20590;-71
2021/12/02 09:29:42;;;;;;;4.20;3.80;;;;;;;10.11;38.96;99412.63;5005813;28;20214;-70
2021/12/02 09:32:07;;;;;;;4.00;3.50;;;;;;;10.50;39.45;99412.28;5021423;28;20194;-71
2021/12/02 09:34:33;;;;;;;8.73;3.60;;;;;;;10.45;38.55;99404.50;5020163;28;20187;-71
2021/12/02 09:36:58;;;;;;;4.50;3.73;;;;;;;10.58;38.66;99410.44;5020031;28;20170;-69
2021/12/02 09:39:30;;;;;;;7.20;3.60;;;;;;;9.03;41.54;99421.25;5020260;28;20167;-70
2021/12/02 09:41:55;;;;;;;11.83;4.00;;;;;;;9.43;40.74;99415.81;5019563;28;20199;-71
2021/12/02 09:44:21;;;;;;;8.73;3.77;;;;;;;9.57;40.10;99417.47;5019577;28;20435;-71
2021/12/02 09:46:47;;;;;;;7.03;4.47;;;;;;;9.77;39.86;99430.31;5020077;28;20167;-71
2021/12/02 09:49:13;;;;;;;4.70;3.50;;;;;;;10.08;39.48;99427.41;5019582;28;20564;-70
2021/12/02 09:52:02;;;;;;;9.17;3.60;;;;;;;9.66;40.14;99437.34;5019331;28;20171;-71
2021/12/02 09:56:55;;;;;;;6.00;4.10;;;;;;;9.34;40.69;99441.91;5019387;28;20392;-70
2021/12/02 09:59:30;;;;;;;4.23;3.33;;;;;;;9.38;40.50;99443.59;5019436;28;20414;-70
2021/12/02 10:02:03;;;;;;;5.43;3.87;;;;;;;9.33;40.51;99444.50;5019377;28;20392;-71
2021/12/02 10:04:29;;;;;;;6.30;3.50;;;;;;;9.57;39.55;99449.53;5019270;28;20456;-70
2021/12/02 10:09:59;;;;;;;10.03;4.20;;;;;;;9.65;40.35;99444.28;5019350;28;20505;-71
2021/12/02 10:12:25;;;;;;;9.13;3.67;;;;;;;9.81;39.62;99450.25;5019099;28;20460;-71
2021/12/02 10:14:53;;;;;;;7.77;4.57;;;;;;;8.98;40.33;99453.34;5018946;28;20433;-71
2021/12/02 10:17:37;;;;;;;6.60;3.90;;;;;;;9.20;40.08;99452.38;5018967;28;20196;-71
2021/12/02 10:20:34;;;;;;;6.80;3.80;;;;;;;9.92;40.20;99445.81;5019385;28;20396;-70
2021/12/02 10:23:37;;;;;;;8.17;4.23;;;;;;;9.54;40.08;99466.91;5019024;28;20385;-71
2021/12/02 10:26:04;;;;;;;5.60;3.73;;;;;;;9.38;41.11;99466.16;5018443;28;20729;-70
2021/12/02 10:28:34;;;;;;;5.70;3.70;;;;;;;10.05;39.47;99456.09;5019046;28;20414;-70
2021/12/02 10:31:03;;;;;;;4.67;3.50;;;;;;;9.26;39.86;99474.88;5018963;28;20429;-71
2021/12/02 10:33:35;;;;;;;8.90;3.60;;;;;;;9.46;40.25;99469.56;5018624;28;20457;-72
2021/12/02 10:36:03;;;;;;;8.90;3.60;;;;;;;9.95;39.28;99470.94;5017837;28;20400;-71
2021/12/02 10:38:43;;;;;;;6.60;3.90;;;;;;;8.85;40.81;99482.00;5018862;28;20436;-71
2021/12/02 10:41:23;;;;;;;4.37;3.30;;;;;;;9.66;40.83;99479.84;5024199;28;20449;-69
2021/12/02 10:44:11;;;;;;;7.00;4.47;;;;;;;9.54;40.01;99487.72;5029678;28;20431;-70
2021/12/02 10:46:39;;;;;;;6.43;4.17;;;;;;;9.73;40.39;99485.88;5028983;28;20435;-70
2021/12/02 10:49:14;;;;;;;6.10;3.80;;;;;;;9.04;41.43;99498.41;5038208;28;20477;-70
2021/12/02 10:51:50;;;;;;;5.60;3.50;;;;;;;9.33;40.37;99501.72;5038006;28;20493;-70
2021/12/02 10:54:25;;;;;;;5.43;3.97;;;;;;;9.38;40.81;99505.16;5038209;28;20468;-70
2021/12/02 10:56:53;;;;;;;3.70;3.30;;;;;;;8.91;41.55;99504.50;5038143;28;20408;-70
2021/12/02 10:59:28;;;;;;;7.67;4.13;;;;;;;9.24;40.17;99502.63;5038397;28;20614;-72
2021/12/02 11:01:56;;;;;;;5.17;3.93;;;;;;;9.39;40.98;99505.16;5038101;28;20423;-70
2021/12/02 11:04:22;;;;;;;5.83;3.70;;;;;;;9.44;40.53;99506.00;5038229;28;20413;-69
2021/12/02 11:06:48;;;;;;;6.70;4.00;;;;;;;9.26;40.86;99511.28;5038066;28;20421;-70
2021/12/02 11:09:30;;;;;;;4.77;3.87;;;;;;;9.56;40.49;99512.00;5037974;28;20158;-70
2021/12/02 11:12:11;;;;;;;4.57;3.37;;;;;;;9.21;40.25;99520.84;5020932;28;20421;-71
2021/12/02 11:14:40;;;;;;;4.63;3.37;;;;;;;9.10;40.25;99518.28;5037829;28;20471;-73
2021/12/02 11:17:14;;;;;;;4.67;3.63;;;;;;;9.55;40.34;99520.66;5039741;28;20453;-72
2021/12/02 11:19:45;;;;;;;6.37;4.10;;;;;;;9.46;39.87;99525.91;5038298;28;20443;-72
2021/12/02 11:22:15;;;;;;;5.20;3.50;;;;;;;8.67;41.78;99541.81;5037891;28;20417;-72
2021/12/02 11:24:42;;;;;;;4.10;3.60;;;;;;;8.22;41.67;99534.03;5037993;28;20809;-71
2021/12/02 11:27:07;;;;;;;5.20;3.60;;;;;;;7.31;44.19;99542.53;5020790;28;20455;-70
2021/12/02 11:29:53;;;;;;;3.70;3.30;;;;;;;7.45;44.25;99544.31;5038330;28;20379;-72
2021/12/02 11:32:35;;;;;;;4.40;3.57;;;;;;;7.93;42.81;99538.34;5037739;28;20185;-71
2021/12/02 11:35:19;;;;;;;5.57;3.83;;;;;;;7.37;44.03;99539.09;5037703;28;20471;-71
2021/12/02 11:37:48;;;;;;;5.13;3.77;;;;;;;7.14;44.25;99549.38;5037894;28;20403;-71
2021/12/02 11:40:17;;;;;;;7.10;4.10;;;;;;;6.83;45.77;99555.28;5020827;28;20456;-70
2021/12/02 11:42:43;;;;;;;8.27;3.80;;;;;;;6.44;46.40;99555.88;5037625;28;20451;-70
2021/12/02 11:45:10;;;;;;;8.03;4.07;;;;;;;6.47;46.21;99550.72;5038011;28;20498;-71
2021/12/02 11:47:36;;;;;;;7.00;3.50;;;;;;;6.38;45.68;99560.16;5027044;28;20535;-72
2021/12/02 11:50:03;;;;;;;7.30;3.80;;;;;;;6.51;45.90;99575.81;5045279;28;20482;-70
2021/12/02 11:52:29;;;;;;;5.03;3.70;;;;;;;6.29;47.22;99570.47;5042556;28;20188;-71
2021/12/02 11:54:56;;;;;;;3.40;3.10;;;;;;;6.23;47.65;99579.00;5041507;28;20468;-70
2021/12/02 11:57:21;;;;;;;4.97;3.67;;;;;;;6.05;47.67;99574.56;5041407;28;20174;-71